createdAt,value
2018-10-11T00:01:55.989Z,69.34
2018-10-11T00:04:24.798Z,69.35
2018-10-11T00:06:53.584Z,69.22
2018-10-11T00:09:22.549Z,69.67
2018-10-11T00:11:51.297Z,69.69
2018-10-11T00:14:20.118Z,69.77
2018-10-11T00:16:48.945Z,70.54
2018-10-11T00:19:17.720Z,71.55
2018-10-11T00:21:46.476Z,70.97
2018-10-11T00:24:15.193Z,70.63
2018-10-11T00:26:43.941Z,70.80
2018-10-11T00:29:12.714Z,71.32
2018-10-11T00:31:41.453Z,70.70
2018-10-11T00:34:10.234Z,70.59
2018-10-11T00:36:39.057Z,70.68
2018-10-11T00:39:08.630Z,70.52
2018-10-11T00:41:37.416Z,70.47
2018-10-11T00:44:06.215Z,70.65
2018-10-11T00:46:35.030Z,70.72
2018-10-11T00:49:03.917Z,70.67
2018-10-11T00:51:32.719Z,71.52
2018-10-11T00:54:01.615Z,70.62
2018-10-11T00:56:30.450Z,71.08
2018-10-11T00:58:59.337Z,70.72
2018-10-11T01:01:28.248Z,70.67
2018-10-11T01:03:57.445Z,71.12
2018-10-11T01:06:26.371Z,71.44
2018-10-11T01:08:55.162Z,71.45
2018-10-11T01:11:23.961Z,72.09
2018-10-11T01:13:52.741Z,72.12
2018-10-11T01:16:21.509Z,71.59
2018-10-11T01:18:50.321Z,71.85
2018-10-11T01:21:19.094Z,71.37
2018-10-11T01:23:47.988Z,71.94
2018-10-11T01:26:16.970Z,71.55
2018-10-11T01:28:45.773Z,71.69
2018-10-11T01:31:20.469Z,72.13
2018-10-11T01:33:49.356Z,71.54
2018-10-11T01:36:18.133Z,71.43
2018-10-11T01:38:48.995Z,71.59
2018-10-11T01:41:18.082Z,71.64
2018-10-11T01:43:46.825Z,71.85
2018-10-11T01:46:15.687Z,72.08
2018-10-11T01:48:44.892Z,71.95
2018-10-11T01:51:13.707Z,72.04
2018-10-11T01:53:42.513Z,72.00
2018-10-11T01:56:11.333Z,72.04
2018-10-11T01:58:40.123Z,72.17
2018-10-11T02:01:08.877Z,71.95
2018-10-11T02:03:37.670Z,73.47
2018-10-11T02:06:06.516Z,73.46
2018-10-11T02:08:35.279Z,73.15
2018-10-11T02:11:04.073Z,72.83
2018-10-11T02:13:33.197Z,72.64
2018-10-11T02:16:01.996Z,73.28
2018-10-11T02:18:30.769Z,72.95
2018-10-11T02:20:59.562Z,72.31
2018-10-11T02:23:28.347Z,72.08
2018-10-11T02:25:57.219Z,72.89
2018-10-11T02:28:26.026Z,72.16
2018-10-11T02:30:54.867Z,72.47
2018-10-11T02:33:23.713Z,71.96
2018-10-11T02:35:52.464Z,72.30
2018-10-11T02:38:21.332Z,72.33
2018-10-11T02:40:50.153Z,72.12
2018-10-11T02:43:18.972Z,72.12
2018-10-11T02:45:47.778Z,72.53
2018-10-11T02:48:16.585Z,72.72
2018-10-11T02:50:45.374Z,72.45
2018-10-11T02:53:14.100Z,71.61
2018-10-11T02:55:42.958Z,72.01
2018-10-11T02:58:22.796Z,72.36
2018-10-11T03:00:51.637Z,71.57
2018-10-11T03:03:22.677Z,72.72
2018-10-11T03:05:51.942Z,72.52
2018-10-11T03:08:22.494Z,72.94
2018-10-11T03:10:51.804Z,73.71
2018-10-11T03:13:20.645Z,73.81
2018-10-11T03:15:49.486Z,73.44
2018-10-11T03:18:19.062Z,73.52
2018-10-11T03:20:47.844Z,74.11
2018-10-11T03:23:16.693Z,73.81
2018-10-11T03:25:46.405Z,74.04
2018-10-11T03:28:16.464Z,73.59
2018-10-11T03:30:45.455Z,74.17
2018-10-11T03:33:15.065Z,73.61
2018-10-11T03:35:44.653Z,73.55
2018-10-11T03:38:13.787Z,73.78
2018-10-11T03:40:42.944Z,73.75
2018-10-11T03:43:11.753Z,73.95
2018-10-11T03:45:40.516Z,74.36
2018-10-11T03:48:09.509Z,74.44
2018-10-11T03:50:38.252Z,74.02
2018-10-11T03:53:07.538Z,74.50
2018-10-11T03:55:36.366Z,74.77
2018-10-11T03:58:05.325Z,74.35
2018-10-11T04:00:34.233Z,74.17
2018-10-11T04:03:03.441Z,73.80
2018-10-11T04:05:32.357Z,73.93
2018-10-11T04:08:01.247Z,73.45
2018-10-11T04:10:30.072Z,74.09
2018-10-11T04:12:59.109Z,74.00
2018-10-11T04:15:30.853Z,74.00
2018-10-11T04:17:59.749Z,74.37
2018-10-11T04:20:28.498Z,74.46
2018-10-11T04:22:57.252Z,74.95
2018-10-11T04:25:27.123Z,74.87
2018-10-11T04:27:55.919Z,74.42
2018-10-11T04:30:25.241Z,74.35
2018-10-11T04:32:55.071Z,74.56
2018-10-11T04:35:23.872Z,74.64
2018-10-11T04:37:52.702Z,74.96
2018-10-11T04:40:21.525Z,74.71
2018-10-11T04:42:50.501Z,74.14
2018-10-11T04:45:19.336Z,74.59
2018-10-11T04:47:48.153Z,74.41
2018-10-11T04:50:17.133Z,74.02
2018-10-11T04:52:46.066Z,74.04
2018-10-11T04:55:14.886Z,73.75
2018-10-11T04:57:43.701Z,73.74
2018-10-11T05:00:14.001Z,73.14
2018-10-11T05:02:42.777Z,73.03
2018-10-11T05:05:11.639Z,72.52
2018-10-11T05:07:40.571Z,72.33
2018-10-11T05:10:09.470Z,71.70
2018-10-11T05:12:38.313Z,71.90
2018-10-11T05:15:07.762Z,72.25
2018-10-11T05:17:36.674Z,71.98
2018-10-11T05:20:05.627Z,72.37
2018-10-11T05:22:34.653Z,71.68
2018-10-11T05:25:03.445Z,72.02
2018-10-11T05:27:32.654Z,71.64
2018-10-11T05:30:01.905Z,71.50
2018-10-11T05:32:31.126Z,72.38
2018-10-11T05:35:00.038Z,71.69
2018-10-11T05:37:29.216Z,72.10
2018-10-11T05:39:58.266Z,71.79
2018-10-11T05:42:27.276Z,71.75
2018-10-11T05:45:04.022Z,71.41
2018-10-11T05:47:33.016Z,71.61
2018-10-11T05:50:02.297Z,71.76
2018-10-11T05:52:31.179Z,71.79
2018-10-11T05:54:59.971Z,72.43
2018-10-11T05:57:28.901Z,71.94
2018-10-11T05:59:58.053Z,71.49
2018-10-11T06:02:27.444Z,70.95
2018-10-11T06:04:56.744Z,70.58
2018-10-11T06:07:25.755Z,69.90
2018-10-11T06:09:54.767Z,69.87
2018-10-11T06:12:23.778Z,69.77
2018-10-11T06:14:53.094Z,69.70
2018-10-11T06:17:22.373Z,69.01
2018-10-11T06:19:51.578Z,69.58
2018-10-11T06:22:20.459Z,68.41
2018-10-11T06:24:49.837Z,69.47
2018-10-11T06:27:18.862Z,68.51
2018-10-11T06:29:47.829Z,68.06
2018-10-11T06:32:16.701Z,67.85
2018-10-11T06:34:45.593Z,68.04
2018-10-11T06:37:14.851Z,67.57
2018-10-11T06:39:43.721Z,67.48
2018-10-11T06:42:12.818Z,66.83
2018-10-11T06:44:41.929Z,67.24
2018-10-11T06:47:10.868Z,66.71
2018-10-11T06:49:40.117Z,66.60
2018-10-11T06:52:09.311Z,66.37
2018-10-11T06:54:38.187Z,65.45
2018-10-11T06:57:07.617Z,66.23
2018-10-11T06:59:36.548Z,64.91
2018-10-11T07:02:05.756Z,65.78
2018-10-11T07:04:34.623Z,66.14
2018-10-11T07:07:03.504Z,65.97
2018-10-11T07:09:32.271Z,65.76
2018-10-11T07:12:01.115Z,64.93
2018-10-11T07:14:29.931Z,65.37
2018-10-11T07:16:58.746Z,64.61
2018-10-11T07:19:27.659Z,64.83
2018-10-11T07:21:58.852Z,63.93
2018-10-11T07:24:27.673Z,64.44
2018-10-11T07:26:56.454Z,64.64
2018-10-11T07:29:25.320Z,64.06
2018-10-11T07:31:54.043Z,64.01
2018-10-11T07:34:22.820Z,63.98
2018-10-11T07:36:51.836Z,63.48
2018-10-11T07:39:20.594Z,63.28
2018-10-11T07:41:49.367Z,64.26
2018-10-11T07:44:18.123Z,63.29
2018-10-11T07:46:46.967Z,63.41
2018-10-11T07:49:15.729Z,63.76
2018-10-11T07:51:44.524Z,63.89
2018-10-11T07:54:13.316Z,63.75
2018-10-11T07:56:42.061Z,63.42
2018-10-11T07:59:10.863Z,63.64
2018-10-11T08:01:39.674Z,63.46
2018-10-11T08:04:08.599Z,62.64
2018-10-11T08:06:37.358Z,61.66
2018-10-11T08:09:07.907Z,61.47
2018-10-11T08:11:36.883Z,61.33
2018-10-11T08:14:05.922Z,61.04
2018-10-11T08:16:34.811Z,60.83
2018-10-11T08:19:04.014Z,60.50
2018-10-11T08:21:32.733Z,59.59
2018-10-11T08:24:01.827Z,60.52
2018-10-11T08:26:31.041Z,60.38
2018-10-11T08:28:59.686Z,59.15
2018-10-11T08:31:28.413Z,59.48
2018-10-11T08:33:57.242Z,59.55
2018-10-11T08:36:26.033Z,58.81
2018-10-11T08:38:54.886Z,58.08
2018-10-11T08:41:23.679Z,57.47
2018-10-11T08:43:52.481Z,57.67
2018-10-11T08:46:21.462Z,57.26
2018-10-11T08:48:50.141Z,56.77
2018-10-11T08:51:18.893Z,56.28
2018-10-11T08:53:47.759Z,56.20
2018-10-11T08:56:16.761Z,55.82
2018-10-11T08:58:45.528Z,55.31
2018-10-11T09:01:14.302Z,54.54
2018-10-11T09:03:43.165Z,53.59
2018-10-11T09:06:12.156Z,53.11
2018-10-11T09:08:41.031Z,51.21
2018-10-11T09:11:09.837Z,51.00
2018-10-11T09:13:38.828Z,49.56
2018-10-11T09:16:07.610Z,49.60
2018-10-11T09:18:36.397Z,48.67
2018-10-11T09:21:05.170Z,48.18
2018-10-11T09:23:33.932Z,48.25
2018-10-11T09:26:02.681Z,46.74
2018-10-11T09:28:31.466Z,47.70
2018-10-11T09:31:00.274Z,47.55
2018-10-11T09:33:29.107Z,47.49
2018-10-11T09:35:57.922Z,46.93
2018-10-11T09:38:27.459Z,47.96
2018-10-11T09:40:56.285Z,46.92
2018-10-11T09:43:25.045Z,45.19
2018-10-11T09:45:53.907Z,43.76
2018-10-11T09:48:22.643Z,43.55
2018-10-11T09:50:51.431Z,42.92
2018-10-11T09:53:20.170Z,42.65
2018-10-11T09:55:48.998Z,42.84
2018-10-11T09:58:17.745Z,44.31
2018-10-11T10:00:51.741Z,42.75
2018-10-11T10:03:20.545Z,43.79
2018-10-11T10:05:49.319Z,43.30
2018-10-11T10:08:18.028Z,42.63
2018-10-11T10:10:46.788Z,43.30
2018-10-11T10:13:15.530Z,43.78
2018-10-11T10:15:44.548Z,44.82
2018-10-11T10:18:13.403Z,44.93
2018-10-11T10:20:42.178Z,45.92
2018-10-11T10:23:11.041Z,46.44
2018-10-11T10:25:39.969Z,45.86
2018-10-11T10:28:08.980Z,46.01
2018-10-11T10:30:42.878Z,44.79
2018-10-11T10:33:11.631Z,44.31
2018-10-11T10:35:40.366Z,44.42
2018-10-11T10:38:09.535Z,44.14
2018-10-11T10:40:38.342Z,43.43
2018-10-11T10:43:07.119Z,42.95
2018-10-11T10:45:35.845Z,41.60
2018-10-11T10:48:04.575Z,41.53
2018-10-11T10:50:33.350Z,40.88
2018-10-11T10:53:02.102Z,40.90
2018-10-11T10:55:30.854Z,41.79
2018-10-11T10:57:59.606Z,40.94
2018-10-11T11:00:28.430Z,41.42
2018-10-11T11:02:57.180Z,40.96
2018-10-11T11:05:25.936Z,41.98
2018-10-11T11:07:54.759Z,42.46
2018-10-11T11:10:23.473Z,42.18
2018-10-11T11:12:52.234Z,43.19
2018-10-11T11:15:21.687Z,43.51
2018-10-11T11:17:50.459Z,44.31
2018-10-11T11:20:19.179Z,43.71
2018-10-11T11:22:48.096Z,43.81
2018-10-11T11:25:16.883Z,44.65
2018-10-11T11:27:45.822Z,44.67
2018-10-11T11:30:14.570Z,43.87
2018-10-11T11:32:43.271Z,43.52
2018-10-11T11:35:12.079Z,43.07
2018-10-11T11:37:40.800Z,43.04
2018-10-11T11:40:09.538Z,43.21
2018-10-11T11:42:38.471Z,43.52
2018-10-11T11:45:07.243Z,42.90
2018-10-11T11:47:36.016Z,43.18
2018-10-11T11:50:04.889Z,43.40
2018-10-11T11:52:33.619Z,42.62
2018-10-11T11:55:02.374Z,42.59
2018-10-11T11:57:31.115Z,43.27
2018-10-11T12:00:00.002Z,43.39
2018-10-11T12:02:28.740Z,42.69
2018-10-11T12:04:57.676Z,43.00
2018-10-11T12:07:26.649Z,42.08
2018-10-11T12:09:55.346Z,42.66
2018-10-11T12:13:01.402Z,42.54
2018-10-11T12:15:31.055Z,41.92
2018-10-11T12:18:01.026Z,42.43
2018-10-11T12:20:31.965Z,42.31
2018-10-11T12:23:01.999Z,41.89
2018-10-11T12:25:31.148Z,42.47
2018-10-11T12:27:59.971Z,42.61
2018-10-11T12:30:28.791Z,42.31
2018-10-11T12:32:57.553Z,42.30
2018-10-11T12:35:27.086Z,41.69
2018-10-11T12:37:55.844Z,41.44
2018-10-11T12:40:24.634Z,42.25
2018-10-11T12:42:53.399Z,41.29
2018-10-11T12:45:22.282Z,40.50
2018-10-11T12:47:51.504Z,40.05
2018-10-11T12:50:20.582Z,40.91
2018-10-11T12:52:49.399Z,41.05
2018-10-11T12:55:18.189Z,41.31
2018-10-11T12:57:46.902Z,41.97
2018-10-11T13:00:16.932Z,42.96
2018-10-11T13:02:45.940Z,44.79
2018-10-11T13:05:14.861Z,44.76
2018-10-11T13:07:43.604Z,46.18
2018-10-11T13:10:12.366Z,46.51
2018-10-11T13:12:41.145Z,46.70
2018-10-11T13:15:10.015Z,47.75
2018-10-11T13:17:42.817Z,48.65
2018-10-11T13:20:08.423Z,48.24
2018-10-11T13:22:37.205Z,47.99
2018-10-11T13:25:06.198Z,48.52
2018-10-11T13:27:34.957Z,48.46
2018-10-11T13:30:04.918Z,49.31
2018-10-11T13:32:33.639Z,48.50
2018-10-11T13:35:02.362Z,49.38
2018-10-11T13:37:31.237Z,48.92
2018-10-11T13:39:59.958Z,48.18
2018-10-11T13:42:28.719Z,48.39
2018-10-11T13:44:57.559Z,47.88
2018-10-11T13:47:26.505Z,46.88
2018-10-11T13:49:55.408Z,47.96
2018-10-11T13:52:24.158Z,48.36
2018-10-11T13:54:52.850Z,48.14
2018-10-11T13:57:25.120Z,48.27
2018-10-11T13:59:50.501Z,49.10
2018-10-11T14:02:19.214Z,49.63
2018-10-11T14:04:47.941Z,50.57
2018-10-11T14:07:17.727Z,50.24
2018-10-11T14:09:46.918Z,50.62
2018-10-11T14:12:15.676Z,50.74
2018-10-11T14:14:44.451Z,51.39
2018-10-11T14:17:14.414Z,51.26
2018-10-11T14:19:43.257Z,51.83
2018-10-11T14:22:17.458Z,51.51
2018-10-11T14:24:47.259Z,51.51
2018-10-11T14:27:18.678Z,52.25
2018-10-11T14:29:47.479Z,52.09
2018-10-11T14:32:16.191Z,52.91
2018-10-11T14:34:44.942Z,52.32
2018-10-11T14:37:14.068Z,52.23
2018-10-11T14:39:42.886Z,52.34
2018-10-11T14:42:12.165Z,52.82
2018-10-11T14:44:45.033Z,52.80
2018-10-11T14:47:14.374Z,53.41
2018-10-11T14:49:43.325Z,52.87
2018-10-11T14:52:12.772Z,53.64
2018-10-11T14:54:41.900Z,54.24
2018-10-11T14:57:13.309Z,54.48
2018-10-11T14:59:45.433Z,54.25
2018-10-11T15:02:14.235Z,54.67
2018-10-11T15:04:45.558Z,54.50
2018-10-11T15:07:15.222Z,54.38
2018-10-11T15:09:43.903Z,54.81
2018-10-11T15:12:12.867Z,54.28
2018-10-11T15:14:41.607Z,55.16
2018-10-11T15:17:10.327Z,54.55
2018-10-11T15:19:39.022Z,55.29
2018-10-11T15:22:07.737Z,55.06
2018-10-11T15:24:36.655Z,55.16
2018-10-11T15:27:05.406Z,55.82
2018-10-11T15:29:34.136Z,56.76
2018-10-11T15:32:03.093Z,56.54
2018-10-11T15:34:31.790Z,56.72
2018-10-11T15:37:00.640Z,57.63
2018-10-11T15:39:29.375Z,57.41
2018-10-11T15:41:58.208Z,57.53
2018-10-11T15:44:26.969Z,58.17
2018-10-11T15:46:55.782Z,57.67
2018-10-11T15:49:24.758Z,57.62
2018-10-11T15:51:53.508Z,57.85
2018-10-11T15:54:22.240Z,58.04
2018-10-11T15:56:50.957Z,57.53
2018-10-11T15:59:19.699Z,57.79
2018-10-11T16:01:48.504Z,57.90
2018-10-11T16:04:17.329Z,58.63
2018-10-11T16:06:46.064Z,58.73
2018-10-11T16:09:14.883Z,58.49
2018-10-11T16:11:43.804Z,58.50
2018-10-11T16:14:12.532Z,58.36
2018-10-11T16:16:41.279Z,58.96
2018-10-11T16:19:10.051Z,58.79
2018-10-11T16:21:38.754Z,59.55
2018-10-11T16:24:07.543Z,59.29
2018-10-11T16:26:36.276Z,59.35
2018-10-11T16:29:05.044Z,59.01
2018-10-11T16:31:33.856Z,59.55
2018-10-11T16:34:02.622Z,59.13
2018-10-11T16:36:31.408Z,58.98
2018-10-11T16:39:00.287Z,59.73
2018-10-11T16:41:29.038Z,59.74
2018-10-11T16:43:58.005Z,59.05
2018-10-11T16:46:26.800Z,59.62
2018-10-11T16:48:55.552Z,59.51
2018-10-11T16:51:24.267Z,60.59
2018-10-11T16:53:53.183Z,59.94
2018-10-11T16:56:22.024Z,60.29
2018-10-11T16:58:50.757Z,59.94
2018-10-11T17:01:19.591Z,60.21
2018-10-11T17:03:48.388Z,60.17
2018-10-11T17:06:17.142Z,60.35
2018-10-11T17:08:45.838Z,60.57
2018-10-11T17:11:14.519Z,60.51
2018-10-11T17:13:43.290Z,60.92
2018-10-11T17:16:12.003Z,61.01
2018-10-11T17:18:40.791Z,60.50
2018-10-11T17:21:09.994Z,60.75
2018-10-11T17:23:38.714Z,60.62
2018-10-11T17:26:07.586Z,60.57
2018-10-11T17:28:40.309Z,60.79
2018-10-11T17:31:09.123Z,61.30
2018-10-11T17:33:37.867Z,60.74
2018-10-11T17:36:06.649Z,60.77
2018-10-11T17:38:35.449Z,61.78
2018-10-11T17:41:04.521Z,60.75
2018-10-11T17:43:33.349Z,60.98
2018-10-11T17:46:02.845Z,61.38
2018-10-11T17:48:31.648Z,61.81
2018-10-11T17:51:00.347Z,61.60
2018-10-11T17:53:29.151Z,61.43
2018-10-11T17:55:57.943Z,61.24
2018-10-11T17:58:26.696Z,61.57
2018-10-11T18:00:55.438Z,62.01
2018-10-11T18:03:24.228Z,61.75
2018-10-11T18:05:53.078Z,61.70
2018-10-11T18:08:21.856Z,62.59
2018-10-11T18:10:50.570Z,62.33
2018-10-11T18:13:19.620Z,62.20
2018-10-11T18:15:48.415Z,62.90
2018-10-11T18:18:17.263Z,62.51
2018-10-11T18:20:46.037Z,63.27
2018-10-11T18:23:14.772Z,62.64
2018-10-11T18:25:43.535Z,62.67
2018-10-11T18:28:12.256Z,63.16
2018-10-11T18:30:41.048Z,62.85
2018-10-11T18:33:09.764Z,62.94
2018-10-11T18:35:38.568Z,63.03
2018-10-11T18:38:07.515Z,63.34
2018-10-11T18:40:36.265Z,62.75
2018-10-11T18:43:05.042Z,62.74
2018-10-11T18:45:33.866Z,62.45
2018-10-11T18:48:02.581Z,62.77
2018-10-11T18:50:31.446Z,62.75
2018-10-11T18:53:00.179Z,62.50
2018-10-11T18:55:29.022Z,63.49
2018-10-11T18:57:57.771Z,63.21
2018-10-11T19:00:26.740Z,63.24
2018-10-11T19:02:55.499Z,62.58
2018-10-11T19:05:24.291Z,62.28
2018-10-11T19:07:53.041Z,62.89
2018-10-11T19:10:21.832Z,63.53
2018-10-11T19:12:50.591Z,63.16
2018-10-11T19:15:19.353Z,63.58
2018-10-11T19:17:48.087Z,63.04
2018-10-11T19:20:16.891Z,63.31
2018-10-11T19:22:45.885Z,63.11
2018-10-11T19:25:14.702Z,63.54
2018-10-11T19:27:43.431Z,63.81
2018-10-11T19:30:12.158Z,63.67
2018-10-11T19:32:40.943Z,63.19
2018-10-11T19:35:09.796Z,63.19
2018-10-11T19:37:38.587Z,62.83
2018-10-11T19:40:07.344Z,62.66
2018-10-11T19:42:36.087Z,63.09
2018-10-11T19:45:04.931Z,62.58
2018-10-11T19:47:33.605Z,62.63
2018-10-11T19:50:02.435Z,63.37
2018-10-11T19:52:31.166Z,63.46
2018-10-11T19:54:59.871Z,63.67
2018-10-11T19:57:28.702Z,63.18
2018-10-11T19:59:57.415Z,63.96
2018-10-11T20:02:26.150Z,63.53
2018-10-11T20:04:54.910Z,63.19
2018-10-11T20:07:23.627Z,63.71
2018-10-11T20:09:52.351Z,63.58
2018-10-11T20:12:21.081Z,63.70
2018-10-11T20:14:49.793Z,63.48
2018-10-11T20:17:18.699Z,63.18
2018-10-11T20:19:47.527Z,63.99
2018-10-11T20:22:16.358Z,63.07
2018-10-11T20:24:45.119Z,63.10
2018-10-11T20:27:13.823Z,63.32
2018-10-11T20:29:42.605Z,63.67
2018-10-11T20:32:12.154Z,63.46
2018-10-11T20:34:40.902Z,63.52
2018-10-11T20:37:09.693Z,63.55
2018-10-11T20:39:38.434Z,63.13
2018-10-11T20:42:07.310Z,62.74
2018-10-11T20:44:36.027Z,63.62
2018-10-11T20:47:04.847Z,62.77
2018-10-11T20:49:33.618Z,63.51
2018-10-11T20:52:02.374Z,62.94
2018-10-11T20:54:31.250Z,62.86
2018-10-11T20:56:59.974Z,63.01
2018-10-11T20:59:28.665Z,63.81
2018-10-11T21:01:57.378Z,64.04
2018-10-11T21:04:26.065Z,62.91
2018-10-11T21:06:55.068Z,62.91
2018-10-11T21:09:23.968Z,62.74
2018-10-11T21:11:52.897Z,63.25
2018-10-11T21:14:21.895Z,63.67
2018-10-11T21:16:50.752Z,63.83
2018-10-11T21:19:19.679Z,63.62
2018-10-11T21:21:48.642Z,63.73
2018-10-11T21:24:17.467Z,63.01
2018-10-11T21:26:46.360Z,63.51
2018-10-11T21:29:15.216Z,63.52
2018-10-11T21:31:44.084Z,63.40
2018-10-11T21:34:13.046Z,63.01
2018-10-11T21:36:42.120Z,63.38
2018-10-11T21:39:12.783Z,63.69
2018-10-11T21:41:42.201Z,63.33
2018-10-11T21:44:12.048Z,63.90
2018-10-11T21:46:41.060Z,63.63
2018-10-11T21:49:10.272Z,64.35
2018-10-11T21:51:39.178Z,64.37
2018-10-11T21:54:08.118Z,65.05
2018-10-11T21:56:37.023Z,65.28
2018-10-11T21:59:05.892Z,65.85
2018-10-11T22:01:34.851Z,65.64
2018-10-11T22:04:03.826Z,65.48
2018-10-11T22:06:32.687Z,65.45
2018-10-11T22:09:01.636Z,65.09
2018-10-11T22:11:30.524Z,65.80
2018-10-11T22:13:59.448Z,65.90
2018-10-11T22:16:28.710Z,65.54
2018-10-11T22:18:57.641Z,65.26
2018-10-11T22:21:26.568Z,65.97
2018-10-11T22:23:55.452Z,65.86
2018-10-11T22:26:24.315Z,66.00
2018-10-11T22:28:53.223Z,66.36
2018-10-11T22:31:22.115Z,66.42
2018-10-11T22:33:51.096Z,66.13
2018-10-11T22:36:20.070Z,66.25
2018-10-11T22:38:48.867Z,66.53
2018-10-11T22:41:17.867Z,67.00
2018-10-11T22:43:46.707Z,66.73
2018-10-11T22:46:15.954Z,66.71
2018-10-11T22:48:44.972Z,66.36
2018-10-11T22:51:13.939Z,66.52
2018-10-11T22:53:43.218Z,66.11
2018-10-11T22:56:12.089Z,67.25
2018-10-11T22:58:41.364Z,67.33
2018-10-11T23:01:10.086Z,66.74
2018-10-11T23:03:39.139Z,67.21
2018-10-11T23:06:07.897Z,67.31
2018-10-11T23:08:36.863Z,66.85
2018-10-11T23:11:05.581Z,67.50
2018-10-11T23:13:34.355Z,67.08
2018-10-11T23:16:03.034Z,67.64
2018-10-11T23:18:31.918Z,67.84
2018-10-11T23:21:00.710Z,68.28
2018-10-11T23:23:29.446Z,67.75
2018-10-11T23:25:58.270Z,68.10
2018-10-11T23:28:27.038Z,68.12
2018-10-11T23:30:55.767Z,68.41
2018-10-11T23:33:24.487Z,67.93
2018-10-11T23:35:53.255Z,67.58
2018-10-11T23:38:22.010Z,68.62
2018-10-11T23:40:50.734Z,68.62
2018-10-11T23:43:19.499Z,68.78
2018-10-11T23:45:48.254Z,68.39
2018-10-11T23:48:17.018Z,68.23
2018-10-11T23:50:45.739Z,68.73
2018-10-11T23:53:14.486Z,68.77
2018-10-11T23:55:43.347Z,67.72
2018-10-11T23:58:12.092Z,68.42
